Time;durP1;ratioP1;P1;durP2;ratioP2;P2;SDS_P1;SDS_P2;PMS_P1;PMS_P2;Temp;Humidity;BMP_temperature;BMP_pressure;BME280_temperature;BME280_humidity;BME280_pressure;Samples;Min_cycle;Max_cycle;Signal;HPM_P1;HPM_P2
2021/12/31 00:01:40;;;;;;;20.90;4.75;;;10.90;99.90;;;;;;4906263;29;20074;-49
2021/12/31 00:04:06;;;;;;;31.65;7.43;;;10.90;99.90;;;;;;4924687;29;20189;-46
2021/12/31 00:06:32;;;;;;;23.38;5.30;;;10.80;99.90;;;;;;4907433;29;20086;-48
2021/12/31 00:08:59;;;;;;;26.00;5.93;;;10.90;99.90;;;;;;4924516;29;20047;-48
2021/12/31 00:11:24;;;;;;;22.08;5.50;;;10.90;99.90;;;;;;4924284;29;20056;-47
2021/12/31 00:13:50;;;;;;;21.08;6.13;;;10.90;99.90;;;;;;4903976;29;20509;-48
2021/12/31 00:16:16;;;;;;;26.63;6.50;;;10.80;99.90;;;;;;4923262;29;20477;-46
2021/12/31 00:18:42;;;;;;;31.38;5.45;;;10.80;99.90;;;;;;4924426;29;20520;-47
2021/12/31 00:21:07;;;;;;;24.90;5.47;;;10.80;99.90;;;;;;4903309;29;20052;-47
2021/12/31 00:23:33;;;;;;;21.25;5.35;;;10.80;99.90;;;;;;4902217;29;20059;-47
2021/12/31 00:25:59;;;;;;;25.20;6.28;;;10.80;99.90;;;;;;4924981;29;20301;-50
2021/12/31 00:28:25;;;;;;;21.50;6.30;;;10.80;99.90;;;;;;4925207;29;20048;-48
2021/12/31 00:30:55;;;;;;;27.48;5.80;;;10.70;99.90;;;;;;4903695;29;20415;-47
2021/12/31 00:33:22;;;;;;;26.80;5.25;;;10.70;99.90;;;;;;4896757;29;20649;-48
2021/12/31 00:35:48;;;;;;;23.20;5.07;;;10.70;99.90;;;;;;4923319;29;20088;-47
2021/12/31 00:38:13;;;;;;;29.45;5.93;;;10.70;99.90;;;;;;4907373;29;20052;-47
2021/12/31 00:40:39;;;;;;;28.13;6.40;;;10.60;99.90;;;;;;4930824;29;20059;-46
2021/12/31 00:43:06;;;;;;;35.45;5.63;;;10.60;99.90;;;;;;4923298;29;20058;-47
2021/12/31 00:45:36;;;;;;;29.60;6.13;;;10.60;99.90;;;;;;4897849;29;20158;-48
2021/12/31 00:48:03;;;;;;;28.73;5.95;;;10.60;99.90;;;;;;4910940;29;20046;-48
2021/12/31 00:50:29;;;;;;;26.20;6.53;;;10.50;99.90;;;;;;4944594;28;20055;-46
2021/12/31 00:52:55;;;;;;;18.92;5.32;;;10.50;99.90;;;;;;4947470;29;20516;-48
2021/12/31 00:55:20;;;;;;;28.27;6.15;;;10.50;99.90;;;;;;4933459;29;20051;-49
2021/12/31 00:57:48;;;;;;;27.38;5.55;;;10.50;99.90;;;;;;4937376;29;20785;-49
2021/12/31 01:00:15;;;;;;;22.27;5.90;;;10.50;99.90;;;;;;4930739;29;20425;-48
2021/12/31 01:02:43;;;;;;;26.38;5.75;;;10.50;99.90;;;;;;4936484;28;20050;-49
2021/12/31 01:05:11;;;;;;;25.58;6.03;;;10.50;99.90;;;;;;4918556;29;20062;-49
2021/12/31 01:07:37;;;;;;;22.10;6.10;;;10.50;99.90;;;;;;4948112;28;20486;-47
2021/12/31 01:10:04;;;;;;;35.55;8.10;;;10.40;99.90;;;;;;4932238;29;20040;-46
2021/12/31 01:12:30;;;;;;;26.33;6.32;;;10.40;99.90;;;;;;4923976;29;20047;-47
2021/12/31 01:15:01;;;;;;;25.95;6.25;;;10.40;99.90;;;;;;4947264;29;20169;-47
2021/12/31 01:17:50;;;;;;;21.17;5.95;;;10.40;99.90;;;;;;4929938;29;20495;-48
2021/12/31 01:20:18;;;;;;;30.80;6.28;;;10.40;99.90;;;;;;4946621;29;20509;-49
2021/12/31 01:22:44;;;;;;;31.48;7.05;;;10.40;99.90;;;;;;4946782;29;20058;-47
2021/12/31 01:25:11;;;;;;;19.80;5.70;;;10.40;99.90;;;;;;4947024;28;20053;-49
2021/12/31 01:27:38;;;;;;;21.08;5.95;;;10.40;99.90;;;;;;4946941;28;20051;-49
2021/12/31 01:30:06;;;;;;;27.13;5.60;;;10.40;99.90;;;;;;4928552;29;20059;-47
2021/12/31 01:32:32;;;;;;;25.92;6.43;;;10.40;99.90;;;;;;4925364;29;20507;-49
2021/12/31 01:34:59;;;;;;;23.48;5.53;;;10.40;99.90;;;;;;4897635;29;20475;-49
2021/12/31 01:37:24;;;;;;;28.30;5.45;;;10.40;99.90;;;;;;4946644;28;20051;-49
2021/12/31 01:39:50;;;;;;;15.07;5.38;;;10.50;99.90;;;;;;4946333;28;20055;-48
2021/12/31 01:42:21;;;;;;;25.40;6.18;;;10.40;99.90;;;;;;4946148;28;20058;-47
2021/12/31 01:44:55;;;;;;;27.63;5.75;;;10.50;99.90;;;;;;4946625;28;20052;-47
2021/12/31 01:47:23;;;;;;;20.55;5.63;;;10.40;99.90;;;;;;4929042;29;20099;-48
2021/12/31 01:49:58;;;;;;;20.75;5.38;;;10.50;99.90;;;;;;4946680;28;20483;-47
2021/12/31 01:52:25;;;;;;;21.20;5.20;;;10.50;99.90;;;;;;4918863;29;20494;-47
2021/12/31 01:54:52;;;;;;;24.65;5.82;;;10.50;99.90;;;;;;4945343;28;20506;-48
2021/12/31 01:57:19;;;;;;;20.70;5.60;;;10.60;99.90;;;;;;4957703;28;20047;-48
2021/12/31 01:59:45;;;;;;;19.48;5.00;;;10.60;99.90;;;;;;4947601;28;20301;-47
2021/12/31 02:02:11;;;;;;;18.02;4.85;;;10.70;99.90;;;;;;4946464;28;20518;-48
2021/12/31 02:04:39;;;;;;;18.92;5.20;;;10.70;99.90;;;;;;4930097;29;20059;-50
2021/12/31 02:07:06;;;;;;;15.48;4.68;;;10.70;99.90;;;;;;4938026;29;20051;-47
2021/12/31 02:09:37;;;;;;;19.02;5.53;;;10.80;99.90;;;;;;4941633;29;20481;-50
2021/12/31 02:12:03;;;;;;;21.35;5.03;;;10.80;99.90;;;;;;4950138;29;20141;-49
2021/12/31 02:14:31;;;;;;;18.42;4.30;;;10.90;99.90;;;;;;4946409;29;20066;-51
2021/12/31 02:16:57;;;;;;;19.08;4.47;;;10.90;99.90;;;;;;4930773;29;20560;-50
2021/12/31 02:19:29;;;;;;;15.35;4.22;;;10.90;99.90;;;;;;4932056;29;20090;-49
2021/12/31 02:21:56;;;;;;;13.90;4.22;;;10.90;99.90;;;;;;4946760;28;20055;-49
2021/12/31 02:24:22;;;;;;;22.38;4.85;;;10.90;99.90;;;;;;4923822;29;20111;-47
2021/12/31 02:26:50;;;;;;;16.65;4.45;;;11.00;99.90;;;;;;4937355;28;20047;-47
2021/12/31 02:29:17;;;;;;;19.13;4.38;;;11.00;99.90;;;;;;4943948;28;20568;-47
2021/12/31 02:31:43;;;;;;;20.08;4.95;;;11.10;99.90;;;;;;4945167;28;20047;-47
2021/12/31 02:34:08;;;;;;;17.08;5.68;;;11.20;99.90;;;;;;4928300;29;20051;-49
2021/12/31 02:36:34;;;;;;;16.40;4.72;;;11.20;99.90;;;;;;4937892;29;20490;-48
2021/12/31 02:39:00;;;;;;;12.65;4.03;;;11.20;99.90;;;;;;4945088;29;20180;-47
2021/12/31 02:41:26;;;;;;;14.02;4.05;;;11.20;99.90;;;;;;4945714;29;20047;-47
2021/12/31 02:44:04;;;;;;;17.98;4.40;;;11.30;99.90;;;;;;4917181;29;20476;-47
2021/12/31 02:46:30;;;;;;;13.70;3.97;;;11.30;99.90;;;;;;4933824;29;20051;-48
2021/12/31 02:48:57;;;;;;;14.60;4.15;;;11.30;99.90;;;;;;4934814;29;20090;-47
2021/12/31 02:51:25;;;;;;;15.90;5.70;;;11.30;99.90;;;;;;4928277;29;20066;-47
2021/12/31 02:53:53;;;;;;;16.75;4.68;;;11.30;99.90;;;;;;4926178;29;20387;-48
2021/12/31 02:56:21;;;;;;;15.93;4.15;;;11.30;99.90;;;;;;4944712;28;20059;-49
2021/12/31 02:58:47;;;;;;;13.10;4.75;;;11.30;99.90;;;;;;4944853;28;20413;-47
2021/12/31 03:01:13;;;;;;;15.88;5.10;;;11.30;99.90;;;;;;4925657;28;20491;-47
2021/12/31 03:03:40;;;;;;;12.07;5.05;;;11.30;99.90;;;;;;4951128;28;20135;-49
2021/12/31 03:06:09;;;;;;;13.23;4.03;;;11.30;99.90;;;;;;4944477;29;20048;-49
2021/12/31 03:08:39;;;;;;;13.80;4.03;;;11.30;99.90;;;;;;4943847;29;20051;-48
2021/12/31 03:11:08;;;;;;;10.70;3.97;;;11.30;99.90;;;;;;4943549;29;20063;-46
2021/12/31 03:13:34;;;;;;;17.35;4.47;;;11.30;99.90;;;;;;4944953;28;20455;-46
2021/12/31 03:16:01;;;;;;;14.60;3.92;;;11.30;99.90;;;;;;4944328;29;20130;-47
2021/12/31 03:18:28;;;;;;;16.88;4.43;;;11.30;99.90;;;;;;4927266;29;20053;-47
2021/12/31 03:20:59;;;;;;;13.80;4.03;;;11.30;99.90;;;;;;4948902;28;20051;-49
2021/12/31 03:23:26;;;;;;;12.40;4.05;;;11.30;99.90;;;;;;4928291;29;20066;-49
2021/12/31 03:25:52;;;;;;;10.48;3.72;;;11.20;99.90;;;;;;4945759;28;20051;-48
2021/12/31 03:28:18;;;;;;;14.70;3.88;;;11.20;99.90;;;;;;4947262;28;20444;-46
2021/12/31 03:30:45;;;;;;;17.38;4.53;;;11.20;99.90;;;;;;4944440;28;20516;-50
2021/12/31 03:33:13;;;;;;;12.98;3.75;;;11.10;99.90;;;;;;4920938;29;20244;-49
2021/12/31 03:35:39;;;;;;;11.68;3.55;;;11.10;99.90;;;;;;4927165;29;20051;-49
2021/12/31 03:38:05;;;;;;;14.07;4.22;;;11.10;99.90;;;;;;4927808;29;20062;-49
2021/12/31 03:40:30;;;;;;;13.35;4.38;;;11.10;99.90;;;;;;4944068;29;20055;-49
2021/12/31 03:42:56;;;;;;;16.58;4.15;;;11.10;99.90;;;;;;4944801;29;20043;-47
2021/12/31 03:45:22;;;;;;;12.82;3.83;;;11.10;99.90;;;;;;4944821;29;20134;-47
2021/12/31 03:47:48;;;;;;;12.52;4.53;;;11.10;99.90;;;;;;4943494;29;20047;-47
2021/12/31 03:50:14;;;;;;;14.32;4.22;;;11.10;99.90;;;;;;4922565;29;20067;-47
2021/12/31 03:52:43;;;;;;;15.00;4.93;;;11.00;99.90;;;;;;4930010;29;20054;-47
2021/12/31 03:55:10;;;;;;;16.77;4.97;;;11.00;99.90;;;;;;4943734;28;20536;-48
2021/12/31 03:57:37;;;;;;;15.00;4.55;;;11.00;99.90;;;;;;4926228;29;20086;-47
2021/12/31 04:00:23;;;;;;;20.45;4.65;;;11.00;99.90;;;;;;4943142;28;20067;-47
2021/12/31 04:02:48;;;;;;;15.57;4.18;;;11.00;99.90;;;;;;4941602;28;20050;-47
2021/12/31 04:05:14;;;;;;;12.52;3.90;;;11.10;99.90;;;;;;4944224;29;20055;-47
2021/12/31 04:07:40;;;;;;;9.88;3.67;;;11.10;99.90;;;;;;4942851;28;20062;-47
2021/12/31 04:10:06;;;;;;;10.93;3.60;;;11.20;99.90;;;;;;4942748;28;20051;-46
2021/12/31 04:12:32;;;;;;;15.35;4.38;;;11.20;99.90;;;;;;4942464;29;20235;-47
2021/12/31 04:14:57;;;;;;;9.63;3.35;;;11.30;99.90;;;;;;4951349;28;20454;-47
2021/12/31 04:17:28;;;;;;;9.68;3.85;;;11.30;99.90;;;;;;4948144;28;20457;-46
2021/12/31 04:19:56;;;;;;;14.35;4.03;;;11.40;99.90;;;;;;4942125;29;20053;-47
2021/12/31 04:22:24;;;;;;;13.25;5.20;;;11.40;99.90;;;;;;4943949;29;20051;-50
2021/12/31 04:27:16;;;;;;;12.00;3.65;;;11.40;99.90;;;;;;4945254;29;20101;-47
2021/12/31 04:29:49;;;;;;;10.35;3.55;;;11.40;99.90;;;;;;4949670;29;20047;-48
2021/12/31 04:32:15;;;;;;;17.77;3.80;;;11.30;99.90;;;;;;4932422;29;20413;-47
2021/12/31 04:34:41;;;;;;;12.20;3.40;;;11.40;99.90;;;;;;4934073;29;20431;-49
2021/12/31 04:37:07;;;;;;;10.60;3.38;;;11.40;99.90;;;;;;4917138;29;20051;-48
2021/12/31 04:39:32;;;;;;;12.23;3.60;;;11.30;99.90;;;;;;4933737;29;20043;-47
2021/12/31 04:41:58;;;;;;;8.82;3.30;;;11.30;99.90;;;;;;4933769;28;20509;-50
2021/12/31 04:44:27;;;;;;;10.73;3.78;;;11.40;99.90;;;;;;4936357;29;20051;-48
2021/12/31 04:46:52;;;;;;;10.60;4.70;;;11.30;99.90;;;;;;4949741;28;20043;-52
2021/12/31 04:49:20;;;;;;;10.40;3.63;;;11.30;99.90;;;;;;4951646;28;20047;-47
2021/12/31 04:51:45;;;;;;;8.02;3.83;;;11.30;99.90;;;;;;4950190;28;20419;-50
2021/12/31 04:54:16;;;;;;;9.32;3.88;;;11.20;99.90;;;;;;4950188;28;20576;-48
2021/12/31 04:56:43;;;;;;;14.93;4.35;;;11.20;99.90;;;;;;4949787;28;20059;-46
2021/12/31 04:59:14;;;;;;;11.40;4.20;;;11.20;99.90;;;;;;4932583;29;20105;-48
2021/12/31 05:01:40;;;;;;;8.48;4.00;;;11.20;99.90;;;;;;4949932;28;20090;-49
2021/12/31 05:04:06;;;;;;;11.85;4.80;;;11.30;99.90;;;;;;4931998;29;20134;-47
2021/12/31 05:06:34;;;;;;;7.90;4.40;;;11.30;99.90;;;;;;4948509;29;20086;-48
2021/12/31 05:09:00;;;;;;;10.13;4.60;;;11.30;99.90;;;;;;4949039;29;20506;-47
2021/12/31 05:11:26;;;;;;;14.50;4.45;;;11.30;99.90;;;;;;4949470;28;20067;-47
2021/12/31 05:13:52;;;;;;;8.40;4.40;;;11.20;99.90;;;;;;4949435;28;20047;-46
2021/12/31 05:16:17;;;;;;;9.57;4.20;;;11.20;99.90;;;;;;4950079;28;20051;-48
2021/12/31 05:18:43;;;;;;;9.07;4.80;;;11.30;99.90;;;;;;4948959;29;20490;-47
2021/12/31 05:21:10;;;;;;;9.32;4.57;;;11.30;99.90;;;;;;4949122;28;20043;-47
2021/12/31 05:23:36;;;;;;;10.13;4.80;;;11.20;99.90;;;;;;4949225;28;20510;-48
2021/12/31 05:26:02;;;;;;;11.50;5.25;;;11.20;99.90;;;;;;4928456;29;20135;-47
2021/12/31 05:28:28;;;;;;;10.55;4.88;;;11.20;99.90;;;;;;4924253;29;20051;-49
2021/12/31 05:30:53;;;;;;;8.43;4.55;;;11.20;99.90;;;;;;4928592;29;20083;-47
2021/12/31 05:33:19;;;;;;;8.52;5.10;;;11.20;99.90;;;;;;4941223;28;20443;-49
2021/12/31 05:35:45;;;;;;;9.18;4.32;;;11.30;99.90;;;;;;4950321;28;20489;-50
2021/12/31 05:38:10;;;;;;;10.73;4.93;;;11.30;99.90;;;;;;4938042;28;20519;-49
2021/12/31 05:40:36;;;;;;;10.65;4.70;;;11.30;99.90;;;;;;4928330;29;20110;-47
2021/12/31 05:43:02;;;;;;;9.60;4.53;;;11.30;99.90;;;;;;4946103;28;20051;-47
2021/12/31 05:45:27;;;;;;;10.63;4.72;;;11.30;99.90;;;;;;4945624;28;20136;-47
2021/12/31 05:47:54;;;;;;;12.07;4.85;;;11.30;99.90;;;;;;4945637;28;20055;-47
2021/12/31 05:50:28;;;;;;;7.25;4.38;;;11.30;99.90;;;;;;4945158;28;20498;-50
2021/12/31 05:52:57;;;;;;;6.63;4.22;;;11.30;99.90;;;;;;4946913;28;20066;-49
2021/12/31 05:55:23;;;;;;;8.13;3.88;;;11.30;99.90;;;;;;4946989;28;20054;-49
2021/12/31 05:57:49;;;;;;;6.50;3.95;;;11.30;99.90;;;;;;4930302;29;20568;-46
2021/12/31 06:00:16;;;;;;;8.20;4.43;;;11.30;99.90;;;;;;4931306;29;20158;-47
2021/12/31 06:02:42;;;;;;;9.13;3.85;;;11.30;99.90;;;;;;4946295;28;20051;-47
2021/12/31 06:05:08;;;;;;;10.02;4.55;;;11.30;99.90;;;;;;4945884;29;20876;-47
2021/12/31 06:07:34;;;;;;;8.57;4.43;;;11.30;99.90;;;;;;4945184;28;20057;-50
2021/12/31 06:09:59;;;;;;;10.60;4.80;;;11.30;99.90;;;;;;4942228;29;20060;-47
2021/12/31 06:12:25;;;;;;;9.65;4.50;;;11.30;99.90;;;;;;4946279;29;20055;-47
2021/12/31 06:14:54;;;;;;;10.95;4.07;;;11.30;99.90;;;;;;4929266;29;20055;-48
2021/12/31 06:17:25;;;;;;;14.38;4.53;;;11.30;99.90;;;;;;4946027;29;20059;-47
2021/12/31 06:19:51;;;;;;;6.65;3.72;;;11.30;99.90;;;;;;4946100;29;20066;-49
2021/12/31 06:22:17;;;;;;;7.68;4.03;;;11.20;99.90;;;;;;4945439;29;20552;-49
2021/12/31 06:24:42;;;;;;;6.07;3.90;;;11.30;99.90;;;;;;4945053;29;20055;-47
2021/12/31 06:27:08;;;;;;;11.82;4.55;;;11.20;99.90;;;;;;4945062;28;20062;-48
2021/12/31 06:29:34;;;;;;;5.55;3.55;;;11.20;99.90;;;;;;4945967;29;20051;-50
2021/12/31 06:32:00;;;;;;;8.73;3.95;;;11.20;99.90;;;;;;4946313;29;20410;-48
2021/12/31 06:34:26;;;;;;;5.57;3.53;;;11.20;99.90;;;;;;4913439;29;20425;-47
2021/12/31 06:36:51;;;;;;;5.95;4.15;;;11.10;99.90;;;;;;4945217;28;20184;-48
2021/12/31 06:39:17;;;;;;;8.88;3.40;;;11.10;99.90;;;;;;4945350;28;20058;-50
2021/12/31 06:41:43;;;;;;;7.30;3.95;;;11.10;99.90;;;;;;4945127;28;20054;-46
2021/12/31 06:44:12;;;;;;;8.82;4.10;;;11.10;99.90;;;;;;4944137;28;20149;-47
2021/12/31 06:46:37;;;;;;;8.63;3.75;;;11.10;99.90;;;;;;4953707;28;20074;-47
2021/12/31 06:49:03;;;;;;;7.90;3.50;;;11.00;99.90;;;;;;4943992;28;20126;-47
2021/12/31 06:51:29;;;;;;;8.27;3.80;;;11.00;99.90;;;;;;4945280;28;20548;-49
2021/12/31 06:53:54;;;;;;;7.00;3.10;;;11.00;99.90;;;;;;4943803;28;20054;-50
2021/12/31 06:56:20;;;;;;;8.85;3.30;;;11.00;99.90;;;;;;4927092;28;20065;-49
2021/12/31 06:58:46;;;;;;;6.75;3.53;;;11.00;99.90;;;;;;4927097;29;20434;-47
2021/12/31 07:01:11;;;;;;;9.25;3.20;;;11.00;99.90;;;;;;4945077;28;20098;-48
2021/12/31 07:03:37;;;;;;;6.22;3.03;;;11.00;99.90;;;;;;4943820;28;20494;-47
2021/12/31 07:06:03;;;;;;;8.48;3.25;;;11.00;99.90;;;;;;4926874;29;20094;-47
2021/12/31 07:08:29;;;;;;;8.90;4.00;;;11.00;99.90;;;;;;4946002;29;20130;-48
2021/12/31 07:10:54;;;;;;;6.78;3.90;;;11.00;99.90;;;;;;4944617;29;20055;-47
2021/12/31 07:13:20;;;;;;;9.95;3.67;;;10.90;99.90;;;;;;4946822;29;20043;-51
2021/12/31 07:15:50;;;;;;;8.68;3.65;;;10.90;99.90;;;;;;4948704;29;20162;-49
2021/12/31 07:18:20;;;;;;;4.90;3.60;;;10.90;99.90;;;;;;4945563;29;20059;-51
2021/12/31 07:20:47;;;;;;;5.32;3.38;;;10.90;99.90;;;;;;4926521;29;20526;-48
2021/12/31 07:23:16;;;;;;;5.50;3.63;;;10.90;99.90;;;;;;4923757;29;20059;-47
2021/12/31 07:25:42;;;;;;;5.60;3.33;;;10.80;99.90;;;;;;4911990;29;20063;-47
2021/12/31 07:28:10;;;;;;;8.38;4.40;;;10.80;99.90;;;;;;4944154;29;20052;-46
2021/12/31 07:30:36;;;;;;;9.63;4.07;;;10.80;99.90;;;;;;4935373;28;20076;-48
2021/12/31 07:33:02;;;;;;;6.15;3.67;;;10.80;99.90;;;;;;4936163;28;20099;-49
2021/12/31 07:35:28;;;;;;;4.40;3.28;;;10.90;99.90;;;;;;4912210;29;20084;-49
2021/12/31 07:37:56;;;;;;;5.65;3.75;;;10.90;99.90;;;;;;4932736;29;20627;-47
2021/12/31 07:40:39;;;;;;;6.28;3.28;;;10.90;99.90;;;;;;4921360;28;20059;-48
2021/12/31 07:43:09;;;;;;;;;;;10.90;99.90;;;;;;4943559;28;20047;-47
2021/12/31 07:45:35;;;;;;;7.10;3.28;;;11.00;99.90;;;;;;4942138;28;19927;-47
2021/12/31 07:48:01;;;;;;;9.50;3.67;;;11.00;99.90;;;;;;4943056;28;20086;-48
2021/12/31 07:50:28;;;;;;;7.20;3.85;;;11.00;99.90;;;;;;4930850;28;20050;-47
2021/12/31 07:52:54;;;;;;;7.68;3.75;;;11.00;99.90;;;;;;4944928;28;20395;-48
2021/12/31 07:55:20;;;;;;;6.00;3.45;;;11.00;99.90;;;;;;4943469;28;20047;-47
2021/12/31 07:57:45;;;;;;;8.80;3.95;;;11.00;99.90;;;;;;4923177;29;20081;-47
2021/12/31 08:00:12;;;;;;;7.80;4.15;;;11.10;99.90;;;;;;4923859;29;20290;-47
2021/12/31 08:02:38;;;;;;;8.85;3.83;;;11.10;99.90;;;;;;4942606;28;20043;-50
2021/12/31 08:05:04;;;;;;;8.13;3.80;;;11.10;99.90;;;;;;4943330;28;20047;-49
2021/12/31 08:07:30;;;;;;;9.32;4.07;;;11.10;99.90;;;;;;4942886;29;20235;-48
2021/12/31 08:09:55;;;;;;;8.50;3.75;;;11.10;99.90;;;;;;4937411;29;20142;-47
2021/12/31 08:12:21;;;;;;;8.70;3.83;;;11.20;99.90;;;;;;4949786;28;20058;-48
2021/12/31 08:14:48;;;;;;;6.28;3.88;;;11.20;99.90;;;;;;4925817;29;20101;-51
2021/12/31 08:17:14;;;;;;;8.93;4.43;;;11.20;99.90;;;;;;4943524;29;20078;-46
2021/12/31 08:19:41;;;;;;;6.85;3.75;;;11.20;99.90;;;;;;4919550;29;20139;-48
2021/12/31 08:22:07;;;;;;;6.28;3.85;;;11.30;99.90;;;;;;4919214;29;20094;-47
2021/12/31 08:24:33;;;;;;;13.52;4.70;;;11.20;99.90;;;;;;4909234;29;20193;-47
2021/12/31 08:26:59;;;;;;;8.00;3.80;;;11.20;99.90;;;;;;4920975;29;20059;-48
2021/12/31 08:29:25;;;;;;;6.43;3.88;;;11.20;99.90;;;;;;4911361;29;20080;-46
2021/12/31 08:31:51;;;;;;;8.90;4.13;;;11.30;99.90;;;;;;4946923;28;20062;-50
2021/12/31 08:34:16;;;;;;;7.00;3.55;;;11.30;99.90;;;;;;4927083;29;20268;-50
2021/12/31 08:36:42;;;;;;;8.82;4.38;;;11.30;99.90;;;;;;4943550;29;20043;-50
2021/12/31 08:39:09;;;;;;;5.53;4.38;;;11.30;99.90;;;;;;4942395;29;20059;-48
2021/12/31 08:41:37;;;;;;;6.72;3.42;;;11.20;99.90;;;;;;4942534;29;20051;-47
2021/12/31 08:44:03;;;;;;;11.50;4.00;;;11.20;99.90;;;;;;4925324;29;20138;-49
2021/12/31 08:46:29;;;;;;;7.45;4.03;;;11.20;99.90;;;;;;4942386;29;20410;-48
2021/12/31 08:48:54;;;;;;;7.40;4.25;;;11.20;99.90;;;;;;4941745;29;20059;-47
2021/12/31 08:51:20;;;;;;;8.43;3.97;;;11.20;99.90;;;;;;4924155;29;20052;-47
2021/12/31 08:53:46;;;;;;;8.05;4.22;;;11.20;99.90;;;;;;4924342;29;20063;-50
2021/12/31 08:56:12;;;;;;;10.00;4.72;;;11.20;99.90;;;;;;4942950;28;20480;-47
2021/12/31 08:58:37;;;;;;;5.57;3.67;;;11.20;99.90;;;;;;4941397;28;20102;-46
2021/12/31 09:01:05;;;;;;;4.18;3.75;;;11.20;99.90;;;;;;4941321;28;20047;-49
2021/12/31 09:03:30;;;;;;;4.63;3.80;;;11.20;99.90;;;;;;4941251;28;20066;-47
2021/12/31 09:05:59;;;;;;;7.00;3.53;;;11.20;99.90;;;;;;4931562;29;20056;-47
2021/12/31 09:08:24;;;;;;;5.78;4.07;;;11.20;99.90;;;;;;4925051;29;20301;-48
2021/12/31 09:10:50;;;;;;;7.50;4.28;;;11.20;99.90;;;;;;4921190;29;20051;-48
2021/12/31 09:13:16;;;;;;;7.30;4.18;;;11.20;99.90;;;;;;4927501;29;20171;-47
2021/12/31 09:15:42;;;;;;;6.20;3.88;;;11.30;99.90;;;;;;4926314;29;20117;-46
2021/12/31 09:18:08;;;;;;;7.63;4.07;;;11.30;99.90;;;;;;4926547;29;20138;-47
2021/12/31 09:20:33;;;;;;;7.88;3.65;;;11.30;99.90;;;;;;4914141;29;20531;-47
2021/12/31 09:22:59;;;;;;;6.88;4.18;;;11.30;99.90;;;;;;4926368;29;20486;-46
2021/12/31 09:25:25;;;;;;;6.78;3.90;;;11.40;99.90;;;;;;4926286;29;20609;-47
2021/12/31 09:27:51;;;;;;;6.05;4.60;;;11.30;99.90;;;;;;4927968;29;20087;-47
2021/12/31 09:30:16;;;;;;;9.75;4.40;;;11.30;99.90;;;;;;4927430;29;20554;-47
2021/12/31 09:32:42;;;;;;;7.53;4.18;;;11.30;99.90;;;;;;4926122;29;20399;-47
2021/12/31 09:35:09;;;;;;;7.78;4.43;;;11.30;99.90;;;;;;4927854;29;20056;-47
2021/12/31 09:37:35;;;;;;;6.55;4.55;;;11.20;99.90;;;;;;4941098;29;20055;-50
2021/12/31 09:40:02;;;;;;;8.07;4.40;;;11.20;99.90;;;;;;4927640;29;20099;-47
2021/12/31 09:42:28;;;;;;;8.60;4.60;;;11.20;99.90;;;;;;4925375;29;20557;-48
2021/12/31 09:44:54;;;;;;;9.68;5.15;;;11.20;99.90;;;;;;4910109;29;20126;-48
2021/12/31 09:47:20;;;;;;;10.30;5.38;;;11.20;99.90;;;;;;4922864;29;20056;-47
2021/12/31 09:49:48;;;;;;;7.65;4.32;;;11.10;99.90;;;;;;4907593;29;20415;-47
2021/12/31 09:52:15;;;;;;;10.82;4.38;;;11.10;99.90;;;;;;4923836;29;20048;-50
2021/12/31 09:54:43;;;;;;;12.30;5.07;;;11.00;99.90;;;;;;4926862;29;20071;-47
2021/12/31 09:57:13;;;;;;;10.55;4.97;;;11.00;99.90;;;;;;4926053;29;20547;-46
2021/12/31 09:59:40;;;;;;;10.20;5.10;;;10.90;99.90;;;;;;4926288;29;20055;-47
2021/12/31 10:02:10;;;;;;;11.10;5.78;;;10.90;99.90;;;;;;4921265;29;20051;-47
2021/12/31 10:04:56;;;;;;;11.15;5.60;;;10.80;99.90;;;;;;4909097;29;20588;-47
2021/12/31 10:07:24;;;;;;;10.48;6.13;;;10.90;99.90;;;;;;4925080;29;20057;-46
2021/12/31 10:10:15;;;;;;;17.75;12.93;;;10.80;99.90;;;;;;4918532;29;20063;-46
2021/12/31 10:12:58;;;;;;;15.50;9.73;;;10.80;99.90;;;;;;4940875;28;20051;-47
2021/12/31 10:15:25;;;;;;;13.40;8.25;;;10.80;99.90;;;;;;4938475;29;20474;-47
2021/12/31 10:17:52;;;;;;;10.68;6.28;;;10.70;99.90;;;;;;4944525;29;20054;-49
2021/12/31 10:20:20;;;;;;;11.07;6.70;;;10.70;99.90;;;;;;4927583;29;20529;-48
2021/12/31 10:22:46;;;;;;;12.75;6.43;;;10.70;99.90;;;;;;4945031;28;20596;-47
2021/12/31 10:25:21;;;;;;;11.40;6.55;;;10.70;99.90;;;;;;4927442;29;20061;-48
2021/12/31 10:27:48;;;;;;;11.02;6.00;;;10.60;99.90;;;;;;4927447;29;20162;-48
2021/12/31 10:30:17;;;;;;;14.32;7.28;;;10.70;99.90;;;;;;4946129;29;20059;-49
2021/12/31 10:32:46;;;;;;;12.95;7.70;;;10.60;99.90;;;;;;4944593;29;20058;-48
2021/12/31 10:35:15;;;;;;;10.15;7.13;;;10.60;99.90;;;;;;4927600;29;20108;-46
2021/12/31 10:38:04;;;;;;;12.05;7.75;;;10.60;99.90;;;;;;4936154;28;20062;-47
2021/12/31 10:40:44;;;;;;;10.45;7.00;;;10.60;99.90;;;;;;4942063;28;20107;-50
2021/12/31 10:43:10;;;;;;;19.55;9.13;;;10.60;99.90;;;;;;4939199;29;20545;-46
2021/12/31 10:45:38;;;;;;;10.85;7.15;;;10.60;99.90;;;;;;4944410;29;20055;-47
2021/12/31 10:48:08;;;;;;;10.60;6.45;;;10.60;99.90;;;;;;4944692;29;20050;-48
2021/12/31 10:50:35;;;;;;;11.25;5.72;;;10.60;99.90;;;;;;4944617;29;20046;-47
2021/12/31 10:53:12;;;;;;;10.48;6.45;;;10.60;99.90;;;;;;4945040;29;20417;-47
2021/12/31 10:55:40;;;;;;;11.40;6.30;;;10.70;99.90;;;;;;4916270;29;20058;-50
2021/12/31 10:58:21;;;;;;;9.32;6.05;;;10.70;99.90;;;;;;4944246;29;20055;-50
2021/12/31 11:00:47;;;;;;;7.90;5.57;;;10.70;99.90;;;;;;4928543;29;20051;-50
2021/12/31 11:03:13;;;;;;;12.10;6.82;;;10.70;99.90;;;;;;4947323;28;20055;-49
2021/12/31 11:05:40;;;;;;;12.02;6.15;;;10.80;99.90;;;;;;4928890;29;20053;-54
2021/12/31 11:08:13;;;;;;;13.93;6.47;;;10.70;99.90;;;;;;4945511;28;20130;-50
2021/12/31 11:10:42;;;;;;;12.60;7.22;;;10.70;99.90;;;;;;4944551;29;20055;-49
2021/12/31 11:13:15;;;;;;;10.75;6.30;;;10.70;99.90;;;;;;4944242;29;20058;-50
2021/12/31 11:15:45;;;;;;;8.25;5.75;;;10.80;99.90;;;;;;4943666;29;20039;-49
2021/12/31 11:18:12;;;;;;;14.23;6.65;;;10.80;99.90;;;;;;4943651;29;20877;-47
2021/12/31 11:20:39;;;;;;;10.00;6.22;;;10.70;99.90;;;;;;4927599;29;20059;-47
2021/12/31 11:23:05;;;;;;;13.10;7.07;;;10.80;99.90;;;;;;4926492;29;20067;-48
2021/12/31 11:25:32;;;;;;;13.45;7.00;;;10.70;99.90;;;;;;4944450;29;20078;-50
2021/12/31 11:27:58;;;;;;;14.55;6.93;;;10.70;99.90;;;;;;4944579;29;20521;-50
2021/12/31 11:30:28;;;;;;;14.27;6.88;;;10.70;99.90;;;;;;4944179;29;20113;-50
2021/12/31 11:33:14;;;;;;;15.30;6.80;;;10.70;99.90;;;;;;4944934;29;20051;-47
2021/12/31 11:35:46;;;;;;;11.85;7.68;;;10.60;99.90;;;;;;4942262;28;20113;-47
2021/12/31 11:38:21;;;;;;;10.77;6.05;;;10.60;99.90;;;;;;4942637;29;20059;-48
2021/12/31 11:40:51;;;;;;;10.88;6.38;;;10.60;99.90;;;;;;4944335;28;20055;-47
2021/12/31 11:43:24;;;;;;;22.63;7.50;;;10.60;99.90;;;;;;4944355;29;20055;-47
2021/12/31 11:46:08;;;;;;;30.20;9.40;;;10.60;99.90;;;;;;4931974;29;20093;-47
2021/12/31 11:48:52;;;;;;;21.92;9.23;;;10.60;99.90;;;;;;4925917;29;20118;-47
2021/12/31 11:51:21;;;;;;;17.15;9.30;;;10.50;99.90;;;;;;4923607;29;20418;-47
2021/12/31 11:54:07;;;;;;;18.80;9.75;;;10.60;99.90;;;;;;4943481;29;20575;-50
2021/12/31 11:56:45;;;;;;;21.20;10.93;;;10.50;99.90;;;;;;4901418;29;20064;-46
2021/12/31 11:59:13;;;;;;;19.77;11.13;;;10.50;99.90;;;;;;4884642;29;20056;-48
2021/12/31 12:01:41;;;;;;;22.10;12.15;;;10.40;99.90;;;;;;4901519;29;20609;-49
2021/12/31 12:04:22;;;;;;;19.20;11.35;;;10.40;99.90;;;;;;4902707;29;20535;-48
2021/12/31 12:06:57;;;;;;;19.67;10.27;;;10.40;99.90;;;;;;4890160;29;20056;-46
2021/12/31 12:09:48;;;;;;;18.90;10.30;;;10.50;99.90;;;;;;4901326;29;20092;-47
2021/12/31 12:12:26;;;;;;;19.45;10.77;;;10.30;99.90;;;;;;4890557;29;20074;-47
2021/12/31 12:15:14;;;;;;;14.88;8.93;;;10.40;99.90;;;;;;4890494;29;20116;-48
2021/12/31 12:17:43;;;;;;;20.00;9.65;;;10.40;99.90;;;;;;4902798;29;20055;-46
2021/12/31 12:20:11;;;;;;;16.58;8.77;;;10.30;99.90;;;;;;4904297;29;20531;-47
2021/12/31 12:22:39;;;;;;;17.35;9.45;;;10.30;99.90;;;;;;4904227;29;20100;-46
2021/12/31 12:25:14;;;;;;;15.20;9.00;;;10.30;99.90;;;;;;4904591;29;20491;-46
2021/12/31 12:27:41;;;;;;;13.07;8.02;;;10.20;99.90;;;;;;4897115;29;20143;-48
2021/12/31 12:30:09;;;;;;;14.98;8.73;;;10.20;99.90;;;;;;4895632;29;20064;-49
2021/12/31 12:35:17;;;;;;;15.52;8.82;;;10.20;99.90;;;;;;4943408;28;20506;-47
2021/12/31 12:37:44;;;;;;;21.58;8.85;;;10.20;99.90;;;;;;4916242;29;20102;-47
2021/12/31 12:40:10;;;;;;;17.30;8.70;;;10.10;99.90;;;;;;4924438;29;20462;-50
2021/12/31 12:42:44;;;;;;;17.48;8.80;;;10.10;99.90;;;;;;4942631;29;20057;-46
2021/12/31 12:45:10;;;;;;;15.60;8.65;;;10.10;99.90;;;;;;4943270;29;20178;-47
2021/12/31 12:47:35;;;;;;;15.95;9.00;;;10.00;99.90;;;;;;4945550;28;20148;-47
2021/12/31 12:50:08;;;;;;;17.48;9.15;;;10.00;99.90;;;;;;4948842;28;20138;-47